createdAt,value
2017-12-23T00:00:57.838Z,99704.81
2017-12-23T00:03:26.114Z,99705.02
2017-12-23T00:05:54.431Z,99711.70
2017-12-23T00:08:22.700Z,99703.57
2017-12-23T00:10:51.003Z,99705.85
2017-12-23T00:13:19.313Z,99714.18
2017-12-23T00:15:47.603Z,99706.59
2017-12-23T00:18:15.819Z,99711.44
2017-12-23T00:20:44.109Z,99713.64
2017-12-23T00:23:12.412Z,99723.46
2017-12-23T00:25:40.647Z,99723.33
2017-12-23T00:28:08.948Z,99710.66
2017-12-23T00:30:37.183Z,99713.64
2017-12-23T00:33:05.480Z,99704.67
2017-12-23T00:35:33.769Z,99711.22
2017-12-23T00:38:02.054Z,99704.39
2017-12-23T00:40:30.478Z,99705.80
2017-12-23T00:42:58.810Z,99712.94
2017-12-23T00:45:27.054Z,99713.64
2017-12-23T00:47:55.306Z,99712.35
2017-12-23T00:50:23.538Z,99715.96
2017-12-23T00:52:51.811Z,99712.06
2017-12-23T00:55:20.051Z,99722.96
2017-12-23T00:57:48.322Z,99719.61
2017-12-23T01:00:16.567Z,99711.07
2017-12-23T01:02:44.819Z,99715.05
2017-12-23T01:05:13.827Z,99707.75
2017-12-23T01:07:42.852Z,99716.20
2017-12-23T01:10:11.091Z,99703.66
2017-12-23T01:12:39.347Z,99716.62
2017-12-23T01:15:07.587Z,99709.45
2017-12-23T01:17:35.908Z,99714.09
2017-12-23T01:20:04.948Z,99714.67
2017-12-23T01:22:33.256Z,99712.89
2017-12-23T01:25:01.520Z,99702.38
2017-12-23T01:27:29.834Z,99702.16
2017-12-23T01:29:58.078Z,99698.38
2017-12-23T01:32:26.331Z,99695.94
2017-12-23T01:34:54.575Z,99680.57
2017-12-23T01:37:22.847Z,99684.92
2017-12-23T01:39:51.094Z,99689.56
2017-12-23T01:42:19.339Z,99692.29
2017-12-23T01:44:47.597Z,99690.46
2017-12-23T01:47:15.855Z,99680.81
2017-12-23T01:49:44.133Z,99680.90
2017-12-23T01:52:12.369Z,99676.22
2017-12-23T01:54:41.383Z,99670.55
2017-12-23T01:57:09.634Z,99673.91
2017-12-23T01:59:37.893Z,99671.25
2017-12-23T02:02:06.896Z,99676.77
2017-12-23T02:04:35.947Z,99666.62
2017-12-23T02:07:04.198Z,99660.59
2017-12-23T02:09:32.470Z,99657.95
2017-12-23T02:12:00.850Z,99659.08
2017-12-23T02:14:29.111Z,99660.31
2017-12-23T02:16:57.351Z,99661.64
2017-12-23T02:19:25.600Z,99661.56
2017-12-23T02:21:54.602Z,99657.91
2017-12-23T02:24:23.628Z,99664.25
2017-12-23T02:26:51.879Z,99665.53
2017-12-23T02:29:20.162Z,99670.34
2017-12-23T02:31:48.402Z,99664.88
2017-12-23T02:34:16.663Z,99650.57
2017-12-23T02:36:45.678Z,99662.51
2017-12-23T02:39:14.700Z,99662.80
2017-12-23T02:41:42.951Z,99651.16
2017-12-23T02:44:11.207Z,99663.18
2017-12-23T02:46:39.443Z,99659.91
2017-12-23T02:49:08.465Z,99671.70
2017-12-23T02:51:37.463Z,99669.23
2017-12-23T02:54:06.474Z,99667.95
2017-12-23T02:56:34.747Z,99666.80
2017-12-23T02:59:03.787Z,99672.05
2017-12-23T03:01:32.163Z,99666.88
2017-12-23T03:04:01.231Z,99671.42
2017-12-23T03:06:29.480Z,99661.45
2017-12-23T03:08:57.758Z,99660.13
2017-12-23T03:11:26.007Z,99664.92
2017-12-23T03:13:54.235Z,99658.25
2017-12-23T03:16:22.486Z,99665.05
2017-12-23T03:18:50.810Z,99670.40
2017-12-23T03:21:20.466Z,99656.73
2017-12-23T03:23:48.751Z,99648.94
2017-12-23T03:26:17.011Z,99649.31
2017-12-23T03:28:45.247Z,99642.56
2017-12-23T03:31:13.495Z,99649.52
2017-12-23T03:33:41.735Z,99650.39
2017-12-23T03:36:09.982Z,99662.53
2017-12-23T03:38:38.224Z,99659.70
2017-12-23T03:41:06.478Z,99652.02
2017-12-23T03:43:34.755Z,99645.63
2017-12-23T03:46:03.013Z,99650.02
2017-12-23T03:48:32.035Z,99648.94
2017-12-23T03:51:00.312Z,99647.50
2017-12-23T03:53:28.560Z,99641.52
2017-12-23T03:55:56.808Z,99641.39
2017-12-23T03:58:25.035Z,99644.43
2017-12-23T04:00:53.287Z,99639.00
2017-12-23T04:03:21.534Z,99635.35
2017-12-23T04:05:50.583Z,99634.40
2017-12-23T04:08:19.463Z,99629.23
2017-12-23T04:10:47.720Z,99625.66
2017-12-23T04:13:16.014Z,99627.81
2017-12-23T04:15:45.038Z,99628.81
2017-12-23T04:18:14.050Z,99627.66
2017-12-23T04:20:42.303Z,99624.59
2017-12-23T04:23:10.555Z,99623.47
2017-12-23T04:25:38.808Z,99615.89
2017-12-23T04:28:07.052Z,99609.28
2017-12-23T04:30:35.359Z,99604.09
2017-12-23T04:33:03.622Z,99609.69
2017-12-23T04:35:31.973Z,99604.77
2017-12-23T04:38:00.254Z,99598.55
2017-12-23T04:40:28.504Z,99599.46
2017-12-23T04:42:56.756Z,99597.14
2017-12-23T04:45:24.995Z,99596.19
2017-12-23T04:47:54.016Z,99603.56
2017-12-23T04:50:22.263Z,99599.38
2017-12-23T04:52:50.566Z,99606.62
2017-12-23T04:55:18.874Z,99612.45
2017-12-23T04:57:47.894Z,99609.28
2017-12-23T05:00:16.907Z,99603.56
2017-12-23T05:02:45.164Z,99611.52
2017-12-23T05:05:13.403Z,99616.94
2017-12-23T05:07:41.649Z,99623.92
2017-12-23T05:10:10.659Z,99631.99
2017-12-23T05:12:39.738Z,99621.78
2017-12-23T05:15:07.923Z,99620.41
2017-12-23T05:17:36.183Z,99622.69
2017-12-23T05:20:04.454Z,99629.10
2017-12-23T05:22:32.750Z,99625.63
2017-12-23T05:25:01.034Z,99631.59
2017-12-23T05:27:29.291Z,99646.94
2017-12-23T05:29:58.290Z,99640.52
2017-12-23T05:32:27.323Z,99642.84
2017-12-23T05:34:55.558Z,99642.23
2017-12-23T05:37:23.819Z,99652.20
2017-12-23T05:39:52.066Z,99642.23
2017-12-23T05:42:21.129Z,99646.66
2017-12-23T05:44:49.443Z,99642.31
2017-12-23T05:47:17.737Z,99636.44
2017-12-23T05:49:46.003Z,99634.58
2017-12-23T05:52:14.258Z,99638.42
2017-12-23T05:54:42.506Z,99629.56
2017-12-23T05:57:10.767Z,99635.15
2017-12-23T05:59:39.006Z,99635.94
2017-12-23T06:02:07.312Z,99642.23
2017-12-23T06:04:35.604Z,99643.02
2017-12-23T06:07:03.895Z,99633.70
2017-12-23T06:09:32.205Z,99626.66
2017-12-23T06:12:00.588Z,99614.32
2017-12-23T06:14:28.883Z,99608.28
2017-12-23T06:16:57.124Z,99605.01
2017-12-23T06:19:26.514Z,99610.80
2017-12-23T06:21:54.764Z,99610.84
2017-12-23T06:24:23.042Z,99607.28
2017-12-23T06:26:51.297Z,99612.13
2017-12-23T06:29:19.573Z,99604.45
2017-12-23T06:31:47.827Z,99610.17
2017-12-23T06:34:16.088Z,99607.80
2017-12-23T06:36:44.338Z,99608.15
2017-12-23T06:39:12.592Z,99613.36
2017-12-23T06:41:40.844Z,99605.20
2017-12-23T06:44:09.866Z,99605.78
2017-12-23T06:46:38.192Z,99606.84
2017-12-23T06:49:06.774Z,99597.75
2017-12-23T06:51:35.134Z,99601.27
2017-12-23T06:54:04.676Z,99602.02
2017-12-23T06:56:34.920Z,99595.71
2017-12-23T06:59:03.218Z,99600.73
2017-12-23T07:01:31.495Z,99597.83
2017-12-23T07:03:59.783Z,99592.74
2017-12-23T07:06:28.029Z,99590.83
2017-12-23T07:08:57.090Z,99587.48
2017-12-23T07:11:25.334Z,99594.94
2017-12-23T07:13:53.589Z,99594.12
2017-12-23T07:16:22.604Z,99599.46
2017-12-23T07:18:50.920Z,99595.69
2017-12-23T07:21:19.936Z,99599.24
2017-12-23T07:23:48.965Z,99597.87
2017-12-23T07:26:17.225Z,99610.95
2017-12-23T07:28:46.247Z,99612.45
2017-12-23T07:31:14.506Z,99624.02
2017-12-23T07:33:42.747Z,99623.34
2017-12-23T07:36:11.079Z,99624.70
2017-12-23T07:38:39.314Z,99622.68
2017-12-23T07:41:08.340Z,99627.98
2017-12-23T07:43:36.632Z,99628.68
2017-12-23T07:46:04.912Z,99622.83
2017-12-23T07:48:33.174Z,99629.95
2017-12-23T07:51:01.494Z,99630.13
2017-12-23T07:53:29.764Z,99630.00
2017-12-23T07:55:58.051Z,99631.89
2017-12-23T07:58:26.290Z,99628.04
2017-12-23T08:00:54.772Z,99625.06
2017-12-23T08:03:23.795Z,99620.26
2017-12-23T08:05:52.098Z,99633.66
2017-12-23T08:08:21.127Z,99631.52
2017-12-23T08:10:49.436Z,99634.20
2017-12-23T08:13:17.697Z,99631.43
2017-12-23T08:15:46.723Z,99628.64
2017-12-23T08:18:14.963Z,99631.03
2017-12-23T08:20:43.218Z,99633.11
2017-12-23T08:23:11.463Z,99635.27
2017-12-23T08:25:40.503Z,99639.49
2017-12-23T08:28:08.760Z,99645.47
2017-12-23T08:30:37.808Z,99643.83
2017-12-23T08:33:06.086Z,99645.88
2017-12-23T08:35:34.454Z,99644.14
2017-12-23T08:38:03.467Z,99643.76
2017-12-23T08:40:31.808Z,99654.92
2017-12-23T08:43:00.193Z,99654.98
2017-12-23T08:45:29.232Z,99659.73
2017-12-23T08:47:58.256Z,99660.72
2017-12-23T08:50:27.279Z,99663.98
2017-12-23T08:52:55.519Z,99665.98
2017-12-23T08:55:23.789Z,99658.68
2017-12-23T08:57:52.082Z,99665.31
2017-12-23T09:00:20.419Z,99660.47
2017-12-23T09:02:49.470Z,99668.33
2017-12-23T09:05:17.722Z,99668.66
2017-12-23T09:07:46.746Z,99673.41
2017-12-23T09:10:14.988Z,99675.13
2017-12-23T09:12:43.247Z,99677.02
2017-12-23T09:15:11.499Z,99676.30
2017-12-23T09:17:39.783Z,99681.31
2017-12-23T09:20:08.819Z,99681.66
2017-12-23T09:22:37.126Z,99685.05
2017-12-23T09:28:05.479Z,99686.02
2017-12-23T09:30:33.790Z,99686.27
2017-12-23T09:33:02.083Z,99683.98
2017-12-23T09:35:31.154Z,99691.18
2017-12-23T09:37:59.411Z,99687.41
2017-12-23T09:40:28.447Z,99690.17
2017-12-23T09:42:56.690Z,99685.45
2017-12-23T09:45:24.934Z,99694.55
2017-12-23T09:47:53.181Z,99696.05
2017-12-23T09:50:21.426Z,99690.92
2017-12-23T09:52:51.058Z,99696.70
2017-12-23T09:55:20.090Z,99696.80
2017-12-23T09:57:48.469Z,99687.34
2017-12-23T10:00:17.481Z,99686.75
2017-12-23T10:02:45.746Z,99690.30
2017-12-23T10:05:14.763Z,99689.13
2017-12-23T10:07:43.782Z,99694.13
2017-12-23T10:10:12.031Z,99681.73
2017-12-23T10:12:40.310Z,99676.56
2017-12-23T10:15:08.607Z,99673.81
2017-12-23T10:17:36.862Z,99674.57
2017-12-23T10:20:05.157Z,99677.88
2017-12-23T10:22:33.474Z,99675.30
2017-12-23T10:25:01.717Z,99670.66
2017-12-23T10:27:30.094Z,99654.08
2017-12-23T10:29:59.151Z,99654.00
2017-12-23T10:32:28.120Z,99655.56
2017-12-23T10:34:56.379Z,99657.59
2017-12-23T10:37:25.417Z,99661.47
2017-12-23T10:39:53.671Z,99657.91
2017-12-23T10:42:22.705Z,99643.09
2017-12-23T10:44:50.993Z,99655.19
2017-12-23T10:47:19.296Z,99657.87
2017-12-23T10:49:47.535Z,99656.55
2017-12-23T10:52:16.830Z,99657.05
2017-12-23T10:54:45.067Z,99655.42
2017-12-23T10:57:13.355Z,99661.05
2017-12-23T10:59:41.607Z,99662.09
2017-12-23T11:02:09.858Z,99656.34
2017-12-23T11:04:38.119Z,99661.35
2017-12-23T11:07:06.375Z,99653.83
2017-12-23T11:09:35.648Z,99648.34
2017-12-23T11:12:03.929Z,99646.66
2017-12-23T11:14:32.253Z,99640.70
2017-12-23T11:17:00.554Z,99636.72
2017-12-23T11:19:28.807Z,99639.38
2017-12-23T11:21:57.060Z,99642.56
2017-12-23T11:24:26.076Z,99640.83
2017-12-23T11:26:54.324Z,99635.39
2017-12-23T11:29:22.579Z,99633.06
2017-12-23T11:31:50.839Z,99632.28
2017-12-23T11:34:19.106Z,99636.16
2017-12-23T11:36:48.137Z,99632.63
2017-12-23T11:39:16.386Z,99626.78
2017-12-23T11:41:44.627Z,99637.13
2017-12-23T11:44:12.890Z,99630.67
2017-12-23T11:46:41.967Z,99626.22
2017-12-23T11:49:10.224Z,99621.77
2017-12-23T11:51:38.468Z,99620.14
2017-12-23T11:54:07.512Z,99622.16
2017-12-23T11:56:35.779Z,99610.29
2017-12-23T11:59:04.808Z,99605.98
2017-12-23T12:01:33.100Z,99610.92
2017-12-23T12:04:01.424Z,99608.77
2017-12-23T12:06:29.686Z,99609.78
2017-12-23T12:08:57.956Z,99605.55
2017-12-23T12:11:26.198Z,99611.61
2017-12-23T12:13:54.493Z,99605.59
2017-12-23T12:16:22.731Z,99601.17
2017-12-23T12:18:51.745Z,99600.02
2017-12-23T12:21:20.049Z,99600.09
2017-12-23T12:23:48.329Z,99598.91
2017-12-23T12:26:16.578Z,99592.33
2017-12-23T12:28:45.606Z,99593.72
2017-12-23T12:31:13.871Z,99592.80
2017-12-23T12:33:42.877Z,99594.03
2017-12-23T12:36:11.892Z,99583.45
2017-12-23T12:38:40.956Z,99586.92
2017-12-23T12:41:09.168Z,99588.30
2017-12-23T12:43:37.409Z,99586.00
2017-12-23T12:46:06.431Z,99583.54
2017-12-23T12:48:35.646Z,99587.72
2017-12-23T12:51:04.123Z,99584.88
2017-12-23T12:53:32.497Z,99582.72
2017-12-23T12:56:00.806Z,99582.80
2017-12-23T12:58:29.090Z,99585.84
2017-12-23T13:00:57.394Z,99580.27
2017-12-23T13:03:25.635Z,99579.39
2017-12-23T13:05:53.887Z,99576.14
2017-12-23T13:08:22.143Z,99574.84
2017-12-23T13:10:50.406Z,99568.16
2017-12-23T13:13:18.743Z,99571.92
2017-12-23T13:15:47.794Z,99575.32
2017-12-23T13:18:16.049Z,99573.91
2017-12-23T13:20:44.311Z,99561.78
2017-12-23T13:23:13.316Z,99566.53
2017-12-23T13:25:41.581Z,99574.80
2017-12-23T13:28:09.830Z,99569.85
2017-12-23T13:30:38.087Z,99570.42
2017-12-23T13:33:06.348Z,99565.95
2017-12-23T13:35:34.746Z,99571.68
2017-12-23T13:38:03.008Z,99565.61
2017-12-23T13:40:32.122Z,99575.09
2017-12-23T13:43:00.471Z,99567.11
2017-12-23T13:45:28.744Z,99565.36
2017-12-23T13:47:56.984Z,99560.34
2017-12-23T13:50:26.007Z,99571.31
2017-12-23T13:52:54.266Z,99565.07
2017-12-23T13:55:22.518Z,99569.72
2017-12-23T13:57:50.860Z,99565.13
2017-12-23T14:00:19.915Z,99565.03
2017-12-23T14:02:48.174Z,99565.23
2017-12-23T14:05:16.430Z,99559.21
2017-12-23T14:07:44.684Z,99563.43
2017-12-23T14:10:12.943Z,99566.03
2017-12-23T14:12:41.196Z,99565.34
2017-12-23T14:15:10.215Z,99561.75
2017-12-23T14:17:39.516Z,99563.77
2017-12-23T14:20:07.763Z,99562.53
2017-12-23T14:22:36.066Z,99557.39
2017-12-23T14:25:04.351Z,99559.23
2017-12-23T14:27:32.745Z,99560.97
2017-12-23T14:30:01.130Z,99566.21
2017-12-23T14:32:29.461Z,99560.49
2017-12-23T14:34:57.735Z,99560.28
2017-12-23T14:37:25.994Z,99556.59
2017-12-23T14:39:54.277Z,99560.02
2017-12-23T14:42:22.539Z,99573.05
2017-12-23T14:44:51.543Z,99567.50
2017-12-23T14:47:19.818Z,99565.56
2017-12-23T14:49:48.833Z,99556.95
2017-12-23T14:52:17.852Z,99559.84
2017-12-23T14:54:46.112Z,99549.38
2017-12-23T14:57:14.370Z,99559.30
2017-12-23T14:59:42.610Z,99551.09
2017-12-23T15:02:10.858Z,99543.95
2017-12-23T15:04:39.100Z,99546.22
2017-12-23T15:07:07.358Z,99549.38
2017-12-23T15:09:35.702Z,99552.25
2017-12-23T15:12:04.019Z,99557.03
2017-12-23T15:14:32.339Z,99552.99
2017-12-23T15:17:00.770Z,99552.08
2017-12-23T15:19:29.034Z,99552.33
2017-12-23T15:21:58.050Z,99550.60
2017-12-23T15:24:26.324Z,99546.56
2017-12-23T15:26:54.575Z,99551.98
2017-12-23T15:29:22.859Z,99553.83
2017-12-23T15:31:51.161Z,99553.99
2017-12-23T15:34:19.486Z,99544.42
2017-12-23T15:36:47.749Z,99546.66
2017-12-23T15:39:16.871Z,99548.45
2017-12-23T15:41:45.870Z,99550.04
2017-12-23T15:44:14.884Z,99552.81
2017-12-23T15:46:43.934Z,99549.77
2017-12-23T15:49:12.181Z,99547.39
2017-12-23T15:51:40.454Z,99541.72
2017-12-23T15:54:09.485Z,99546.52
2017-12-23T15:56:37.738Z,99542.80
2017-12-23T15:59:06.026Z,99540.47
2017-12-23T16:01:34.338Z,99539.39
2017-12-23T16:04:03.574Z,99541.98
2017-12-23T16:06:32.049Z,99561.02
2017-12-23T16:09:01.513Z,99549.44
2017-12-23T16:11:29.804Z,99547.48
2017-12-23T16:13:58.067Z,99553.02
2017-12-23T16:16:26.341Z,99552.50
2017-12-23T16:18:55.402Z,99550.81
2017-12-23T16:21:23.688Z,99551.59
2017-12-23T16:23:51.936Z,99548.22
2017-12-23T16:26:20.323Z,99547.77
2017-12-23T16:28:49.406Z,99545.29
2017-12-23T16:31:17.658Z,99544.84
2017-12-23T16:33:45.939Z,99545.96
2017-12-23T16:36:14.222Z,99539.83
2017-12-23T16:38:42.490Z,99544.28
2017-12-23T16:41:10.739Z,99535.89
2017-12-23T16:43:39.090Z,99534.23
2017-12-23T16:46:07.392Z,99532.74
2017-12-23T16:48:35.671Z,99535.13
2017-12-23T16:51:04.046Z,99536.49
2017-12-23T16:53:32.445Z,99538.08
2017-12-23T16:56:00.818Z,99537.95
2017-12-23T16:58:29.082Z,99536.89
2017-12-23T17:00:58.098Z,99533.27
2017-12-23T17:03:27.135Z,99541.90
2017-12-23T17:05:55.424Z,99540.61
2017-12-23T17:08:23.671Z,99538.83
2017-12-23T17:10:52.694Z,99541.67
2017-12-23T17:13:21.714Z,99539.45
2017-12-23T17:15:49.979Z,99544.88
2017-12-23T17:18:19.004Z,99539.13
2017-12-23T17:20:47.298Z,99536.89
2017-12-23T17:23:15.603Z,99539.23
2017-12-23T17:25:43.922Z,99543.50
2017-12-23T17:28:17.962Z,99547.30
2017-12-23T17:30:46.291Z,99540.69
2017-12-23T17:33:14.531Z,99538.02
2017-12-23T17:35:42.798Z,99537.11
2017-12-23T17:38:11.098Z,99531.83
2017-12-23T17:40:39.343Z,99527.56
2017-12-23T17:43:07.601Z,99531.33
2017-12-23T17:45:35.926Z,99527.13
2017-12-23T17:48:04.981Z,99525.30
2017-12-23T17:50:33.357Z,99536.03
2017-12-23T17:53:01.629Z,99533.52
2017-12-23T17:55:29.977Z,99524.75
2017-12-23T17:57:58.267Z,99529.69
2017-12-23T18:00:26.589Z,99529.41
2017-12-23T18:02:54.902Z,99529.45
2017-12-23T18:05:23.229Z,99531.30
2017-12-23T18:07:51.470Z,99530.00
2017-12-23T18:10:19.749Z,99528.70
2017-12-23T18:12:48.051Z,99529.08
2017-12-23T18:15:16.356Z,99527.30
2017-12-23T18:17:44.602Z,99535.08
2017-12-23T18:20:13.630Z,99528.55
2017-12-23T18:22:41.910Z,99520.37
2017-12-23T18:25:10.185Z,99521.60
2017-12-23T18:27:39.248Z,99522.00
2017-12-23T18:30:07.544Z,99524.53
2017-12-23T18:32:35.851Z,99523.66
2017-12-23T18:35:04.090Z,99520.93
2017-12-23T18:37:32.442Z,99523.34
2017-12-23T18:40:01.523Z,99533.43
2017-12-23T18:42:29.842Z,99538.06
2017-12-23T18:44:58.894Z,99526.48
2017-12-23T18:47:27.159Z,99526.08
2017-12-23T18:49:55.400Z,99526.04
2017-12-23T18:52:23.661Z,99526.73
2017-12-23T18:54:51.945Z,99519.83
2017-12-23T18:57:20.204Z,99521.89
2017-12-23T18:59:48.463Z,99524.79
2017-12-23T19:02:16.778Z,99522.48
2017-12-23T19:04:45.784Z,99521.89
2017-12-23T19:07:15.230Z,99513.86
2017-12-23T19:09:43.467Z,99524.71
2017-12-23T19:12:11.769Z,99514.34
2017-12-23T19:14:40.817Z,99515.31
2017-12-23T19:17:09.096Z,99511.69
2017-12-23T19:19:37.326Z,99511.89
2017-12-23T19:22:05.614Z,99521.16
2017-12-23T19:24:33.977Z,99514.30
2017-12-23T19:27:02.313Z,99515.08
2017-12-23T19:29:30.635Z,99513.01
2017-12-23T19:31:58.928Z,99517.45
2017-12-23T19:34:27.233Z,99520.51
2017-12-23T19:36:55.538Z,99517.41
2017-12-23T19:39:23.830Z,99521.12
2017-12-23T19:41:52.122Z,99521.23
2017-12-23T19:44:20.421Z,99523.63
2017-12-23T19:46:48.781Z,99520.16
2017-12-23T19:49:17.069Z,99523.98
2017-12-23T19:51:45.366Z,99523.77
2017-12-23T19:54:13.673Z,99521.13
2017-12-23T19:56:41.995Z,99516.73
2017-12-23T19:59:10.317Z,99519.64
2017-12-23T20:01:38.597Z,99519.59
2017-12-23T20:04:06.895Z,99515.83
2017-12-23T20:06:35.218Z,99514.67
2017-12-23T20:09:03.673Z,99510.00
2017-12-23T20:11:32.006Z,99518.41
2017-12-23T20:14:00.308Z,99508.55
2017-12-23T20:16:28.587Z,99517.45
2017-12-23T20:18:56.907Z,99511.78
2017-12-23T20:21:25.209Z,99507.41
2017-12-23T20:23:54.269Z,99507.63
2017-12-23T20:26:22.574Z,99503.42
2017-12-23T20:28:50.884Z,99504.84
2017-12-23T20:31:19.969Z,99501.66
2017-12-23T20:33:48.354Z,99503.33
2017-12-23T20:36:17.428Z,99499.06
2017-12-23T20:38:45.734Z,99499.61
2017-12-23T20:41:14.100Z,99500.52
2017-12-23T20:43:42.424Z,99499.61
2017-12-23T20:46:10.714Z,99495.22
2017-12-23T20:48:39.051Z,99500.27
2017-12-23T20:51:08.151Z,99498.40
2017-12-23T20:53:37.260Z,99500.05
2017-12-23T20:56:05.569Z,99494.75
2017-12-23T20:58:34.680Z,99495.11
2017-12-23T21:01:03.096Z,99490.79
2017-12-23T21:03:31.450Z,99494.52
2017-12-23T21:06:00.573Z,99498.09
2017-12-23T21:08:29.237Z,99494.81
2017-12-23T21:10:57.482Z,99499.87
2017-12-23T21:13:25.791Z,99494.02
2017-12-23T21:15:54.112Z,99497.67
2017-12-23T21:18:22.367Z,99510.92
2017-12-23T21:20:50.693Z,99505.17
2017-12-23T21:23:18.991Z,99504.09
2017-12-23T21:25:48.212Z,99505.59
2017-12-23T21:28:16.526Z,99506.99
2017-12-23T21:30:44.814Z,99501.70
2017-12-23T21:33:13.135Z,99498.22
2017-12-23T21:35:41.487Z,99497.47
2017-12-23T21:38:09.798Z,99504.44
2017-12-23T21:40:38.139Z,99495.20
2017-12-23T21:43:06.419Z,99488.78
2017-12-23T21:45:34.812Z,99490.28
2017-12-23T21:48:03.422Z,99490.31
2017-12-23T21:50:32.662Z,99492.02
2017-12-23T21:53:01.076Z,99494.08
2017-12-23T21:55:29.397Z,99491.23
2017-12-23T21:57:58.423Z,99493.08
2017-12-23T22:00:27.501Z,99487.41
2017-12-23T22:02:55.782Z,99486.62
2017-12-23T22:05:24.083Z,99492.75
2017-12-23T22:07:53.179Z,99496.48
2017-12-23T22:10:23.238Z,99487.17
2017-12-23T22:12:51.534Z,99489.32
2017-12-23T22:15:20.060Z,99493.24
2017-12-23T22:17:48.490Z,99488.13
2017-12-23T22:20:17.780Z,99487.83
2017-12-23T22:22:46.074Z,99487.71
2017-12-23T22:25:14.397Z,99491.06
2017-12-23T22:27:42.946Z,99491.15
2017-12-23T22:30:11.277Z,99485.48
2017-12-23T22:32:39.561Z,99487.16
2017-12-23T22:35:07.874Z,99486.26
2017-12-23T22:37:36.182Z,99484.89
2017-12-23T22:40:04.593Z,99478.77
2017-12-23T22:42:34.701Z,99477.60
2017-12-23T22:45:03.810Z,99480.09
2017-12-23T22:47:32.185Z,99482.33
2017-12-23T22:50:00.532Z,99481.01
2017-12-23T22:52:28.914Z,99481.01
2017-12-23T22:54:57.201Z,99475.75
2017-12-23T22:57:25.503Z,99476.20
2017-12-23T22:59:53.826Z,99471.15
2017-12-23T23:02:22.128Z,99475.30
2017-12-23T23:04:50.476Z,99470.00
2017-12-23T23:07:18.934Z,99473.61
2017-12-23T23:09:48.003Z,99470.50
2017-12-23T23:12:16.255Z,99476.38
2017-12-23T23:14:44.537Z,99473.73
2017-12-23T23:17:12.838Z,99471.38
2017-12-23T23:19:41.134Z,99470.92
2017-12-23T23:22:09.423Z,99472.66
2017-12-23T23:24:37.660Z,99466.95
2017-12-23T23:27:05.964Z,99462.02
2017-12-23T23:29:35.075Z,99461.87
2017-12-23T23:32:03.432Z,99459.78
2017-12-23T23:34:32.569Z,99464.30
2017-12-23T23:37:01.716Z,99469.59
2017-12-23T23:39:30.072Z,99468.77
2017-12-23T23:41:59.142Z,99455.81
2017-12-23T23:44:27.401Z,99463.34
2017-12-23T23:46:55.658Z,99455.86
2017-12-23T23:49:24.663Z,99452.88
2017-12-23T23:51:53.729Z,99457.27
2017-12-23T23:54:21.962Z,99457.27
2017-12-23T23:56:50.315Z,99452.38
2017-12-23T23:59:18.636Z,99461.62
